Time;durP1;ratioP1;P1;durP2;ratioP2;P2;SDS_P1;SDS_P2;PMS_P1;PMS_P2;Temp;Humidity;BMP_temperature;BMP_pressure;BME280_temperature;BME280_humidity;BME280_pressure;Samples;Min_cycle;Max_cycle;Signal;HPM_P1;HPM_P2
2021/09/08 00:01:55;;;;;;;;;10.50;10.50;;;;;27.07;43.44;101476.12;144146;600;132016;-68
2021/09/08 00:04:29;;;;;;;;;11.50;11.50;;;;;27.15;43.14;101466.38;144170;638;132011;-73
2021/09/08 00:07:03;;;;;;;;;13.75;12.00;;;;;27.19;43.01;101470.53;144167;618;132027;-66
2021/09/08 00:09:37;;;;;;;;;13.00;11.25;;;;;27.21;42.94;101464.16;144165;589;132010;-66
2021/09/08 00:12:11;;;;;;;;;7.25;7.25;;;;;26.80;44.10;101467.56;144156;566;132911;-67
2021/09/08 00:14:45;;;;;;;;;13.50;11.75;;;;;27.13;43.17;101463.00;144152;685;132008;-66
2021/09/08 00:17:18;;;;;;;;;13.75;12.50;;;;;27.34;42.37;101456.72;144148;594;132010;-66
2021/09/08 00:19:53;;;;;;;;;11.00;11.00;;;;;27.28;42.44;101452.69;144163;565;132010;-67
2021/09/08 00:22:26;;;;;;;;;11.50;11.50;;;;;27.34;42.69;101456.72;144147;607;132012;-66
2021/09/08 00:25:00;;;;;;;;;12.00;12.00;;;;;27.44;43.02;101454.09;144172;578;131022;-67
2021/09/08 00:27:34;;;;;;;;;11.75;11.25;;;;;27.31;43.01;101452.44;144155;578;132011;-66
2021/09/08 00:30:10;;;;;;;;;12.25;12.25;;;;;27.39;42.76;101454.47;144166;573;132010;-65
2021/09/08 00:32:44;;;;;;;;;9.75;9.75;;;;;27.32;42.60;101458.66;144160;586;132020;-66
2021/09/08 00:35:18;;;;;;;;;13.00;11.00;;;;;27.19;43.17;101461.59;144176;568;131021;-67
2021/09/08 00:37:52;;;;;;;;;11.75;11.75;;;;;27.31;43.09;101447.03;144155;596;132010;-67
2021/09/08 00:40:26;;;;;;;;;10.25;10.25;;;;;26.44;44.92;101448.16;144165;571;131020;-67
2021/09/08 00:43:00;;;;;;;;;10.50;10.50;;;;;27.07;43.23;101441.94;144152;610;132018;-65
2021/09/08 00:45:34;;;;;;;;;9.25;9.25;;;;;27.01;43.44;101443.34;144173;567;132010;-68
2021/09/08 00:48:08;;;;;;;;;9.00;9.00;;;;;27.06;43.01;101448.31;144133;571;152016;-68
2021/09/08 00:50:43;;;;;;;;;11.75;11.00;;;;;27.15;42.84;101446.69;144177;596;131021;-67
2021/09/08 00:53:20;;;;;;;;;10.00;9.00;;;;;27.11;43.87;101445.25;144159;567;131021;-67
2021/09/08 00:55:55;;;;;;;;;9.50;8.50;;;;;27.12;43.66;101444.22;144176;632;131020;-68
2021/09/08 00:58:39;;;;;;;;;9.00;9.00;;;;;27.01;43.73;101448.72;144169;574;131911;-68
2021/09/08 01:01:13;;;;;;;;;9.00;9.00;;;;;26.38;44.56;101448.69;144168;629;132010;-67
2021/09/08 01:03:46;;;;;;;;;11.75;11.00;;;;;26.82;43.93;101432.44;144152;654;131909;-68
2021/09/08 01:06:20;;;;;;;;;9.00;9.00;;;;;26.18;45.44;101442.25;144151;622;132008;-69
2021/09/08 01:08:55;;;;;;;;;7.00;7.00;;;;;26.85;43.43;101441.09;144157;607;132018;-70
2021/09/08 01:11:29;;;;;;;;;7.50;7.00;;;;;25.26;46.85;101443.28;144169;663;132008;-68
2021/09/08 01:14:02;;;;;;;;;6.00;6.00;;;;;24.74;48.04;101431.22;144150;646;132019;-69
2021/09/08 01:16:36;;;;;;;;;6.75;6.75;;;;;24.81;48.17;101444.06;144169;644;132010;-69
2021/09/08 01:19:10;;;;;;;;;6.75;6.75;;;;;24.88;48.37;101436.41;144154;573;132909;-68
2021/09/08 01:21:44;;;;;;;;;7.50;7.00;;;;;24.54;48.89;101438.94;144167;702;140021;-69
2021/09/08 01:24:18;;;;;;;;;5.00;5.00;;;;;23.87;49.40;101436.75;144167;663;132909;-68
2021/09/08 01:26:55;;;;;;;;;6.75;6.50;;;;;25.32;46.92;101431.19;144175;631;131020;-68
2021/09/08 01:29:29;;;;;;;;;6.50;6.50;;;;;25.54;45.01;101433.03;144156;582;131904;-69
2021/09/08 01:32:04;;;;;;;;;6.50;5.75;;;;;26.49;43.77;101432.47;144164;569;131010;-70
2021/09/08 01:34:37;;;;;;;;;5.75;5.75;;;;;26.56;43.13;101422.03;144152;604;132861;-70
2021/09/08 01:37:13;;;;;;;;;7.50;5.25;;;;;26.46;43.20;101416.56;144170;672;132010;-69
2021/09/08 01:39:47;;;;;;;;;6.75;6.75;;;;;25.34;45.45;101418.50;144152;587;132909;-68
2021/09/08 01:42:21;;;;;;;;;5.00;5.00;;;;;25.33;45.46;101395.31;144170;655;132008;-68
2021/09/08 01:44:55;;;;;;;;;7.75;6.75;;;;;26.18;43.68;101399.19;144154;593;132010;-68
2021/09/08 01:47:29;;;;;;;;;4.25;4.25;;;;;26.93;41.95;101410.81;144146;594;153008;-68
2021/09/08 01:50:02;;;;;;;;;2.75;2.75;;;;;27.32;40.96;101404.75;144160;588;132012;-68
2021/09/08 01:52:37;;;;;;;;;5.00;5.00;;;;;27.15;41.34;101407.09;144173;607;132010;-69
2021/09/08 01:55:14;;;;;;;;;8.25;5.25;;;;;26.61;42.25;101395.53;144149;571;131909;-68
2021/09/08 01:57:48;;;;;;;;;7.00;7.00;;;;;26.71;42.29;101382.19;144152;571;132010;-68
2021/09/08 02:00:22;;;;;;;;;6.25;6.00;;;;;27.16;40.98;101389.94;144153;579;132020;-67
2021/09/08 02:02:56;;;;;;;;;8.25;7.00;;;;;27.27;41.32;101390.81;144175;726;131022;-68
2021/09/08 02:05:30;;;;;;;;;5.50;5.50;;;;;26.99;41.67;101388.72;144157;620;131020;-68
2021/09/08 02:08:04;;;;;;;;;5.50;5.00;;;;;26.17;42.42;101392.94;144171;619;132008;-68
2021/09/08 02:10:38;;;;;;;;;6.00;6.00;;;;;26.92;41.63;101389.41;144154;583;132010;-67
2021/09/08 02:13:12;;;;;;;;;5.00;5.00;;;;;27.28;40.62;101392.53;144171;564;131999;-67
2021/09/08 02:15:46;;;;;;;;;8.75;8.00;;;;;27.42;40.45;101394.03;144169;569;131020;-67
2021/09/08 02:18:20;;;;;;;;;6.00;5.75;;;;;27.42;40.85;101386.81;144178;576;131010;-67
2021/09/08 02:20:54;;;;;;;;;5.00;5.00;;;;;27.61;40.25;101404.91;144149;626;132011;-67
2021/09/08 02:23:28;;;;;;;;;5.00;5.00;;;;;27.78;40.03;101397.13;144156;572;132010;-67
2021/09/08 02:26:02;;;;;;;;;7.75;6.00;;;;;27.62;40.38;101406.59;144157;625;132010;-67
2021/09/08 02:28:35;;;;;;;;;7.00;6.00;;;;;26.86;42.04;101404.25;144177;571;132008;-67
2021/09/08 02:31:10;;;;;;;;;5.50;5.00;;;;;27.43;40.87;101407.38;144156;577;132010;-68
2021/09/08 02:33:44;;;;;;;;;8.00;8.00;;;;;27.44;40.88;101405.56;144174;571;131020;-68
2021/09/08 02:36:20;;;;;;;;;6.50;5.50;;;;;27.62;40.63;101408.44;144151;569;132012;-68
2021/09/08 02:38:55;;;;;;;;;6.25;5.25;;;;;27.61;40.79;101395.94;144170;671;131020;-67
2021/09/08 02:41:29;;;;;;;;;7.00;6.00;;;;;27.59;41.21;101397.94;144169;610;132909;-67
2021/09/08 02:44:03;;;;;;;;;7.50;7.50;;;;;27.66;40.57;101389.13;144178;637;131010;-69
2021/09/08 02:46:37;;;;;;;;;8.75;8.50;;;;;27.73;40.60;101394.81;144157;622;132909;-69
2021/09/08 02:49:11;;;;;;;;;10.00;8.00;;;;;27.49;41.06;101393.34;144160;622;132010;-68
2021/09/08 02:51:45;;;;;;;;;7.25;7.00;;;;;27.41;40.82;101403.97;144144;597;144016;-68
2021/09/08 02:54:19;;;;;;;;;8.25;7.00;;;;;27.56;40.80;101401.75;144175;603;132008;-69
2021/09/08 02:56:52;;;;;;;;;5.00;5.00;;;;;27.64;40.58;101401.03;144155;617;132010;-69
2021/09/08 02:59:26;;;;;;;;;9.25;7.50;;;;;27.63;40.20;101402.91;144176;579;131020;-69
2021/09/08 03:02:00;;;;;;;;;6.00;6.00;;;;;27.67;40.58;101395.41;144140;611;133010;-67
2021/09/08 03:04:34;;;;;;;;;6.50;6.25;;;;;27.74;40.50;101395.69;144170;583;132008;-68
2021/09/08 03:07:08;;;;;;;;;5.00;5.00;;;;;27.76;40.36;101385.59;144166;583;132020;-70
2021/09/08 03:09:42;;;;;;;;;6.00;5.25;;;;;27.79;40.43;101398.81;144178;579;131020;-69
2021/09/08 03:12:16;;;;;;;;;9.00;7.00;;;;;27.78;39.95;101394.44;144154;632;131909;-68
2021/09/08 03:14:50;;;;;;;;;6.00;6.00;;;;;27.75;40.47;101394.69;144147;565;132010;-69
2021/09/08 03:17:24;;;;;;;;;5.50;5.50;;;;;27.67;40.68;101395.41;144155;580;132010;-67
2021/09/08 03:19:57;;;;;;;;;8.50;6.75;;;;;27.59;40.55;101397.94;144175;591;131023;-68
2021/09/08 03:22:35;;;;;;;;;7.50;7.00;;;;;27.53;40.48;101393.94;144155;668;131016;-69
2021/09/08 03:25:10;;;;;;;;;7.25;7.00;;;;;27.51;40.59;101399.44;144170;592;131021;-69
2021/09/08 03:27:43;;;;;;;;;7.00;5.75;;;;;27.43;40.44;101406.53;144145;615;132012;-67
2021/09/08 03:30:17;;;;;;;;;6.75;6.00;;;;;27.42;40.96;101411.09;144175;682;131020;-67
2021/09/08 03:32:51;;;;;;;;;5.50;5.00;;;;;27.40;40.69;101402.25;144166;599;133909;-67
2021/09/08 03:35:25;;;;;;;;;5.75;4.00;;;;;27.36;39.79;101403.53;144170;589;131020;-67
2021/09/08 03:37:59;;;;;;;;;7.75;6.25;;;;;27.09;39.40;101407.66;144147;607;132010;-68
2021/09/08 03:40:33;;;;;;;;;7.50;7.50;;;;;27.07;39.51;101404.22;144156;590;131040;-67
2021/09/08 03:43:07;;;;;;;;;9.00;7.25;;;;;26.98;39.62;101405.88;144159;623;132018;-69
2021/09/08 03:45:41;;;;;;;;;8.50;7.75;;;;;26.85;39.91;101405.25;144176;614;131020;-68
2021/09/08 03:48:15;;;;;;;;;6.00;5.00;;;;;26.80;40.19;101405.63;144155;688;131020;-68
2021/09/08 03:50:49;;;;;;;;;6.50;6.00;;;;;26.72;40.37;101405.44;144175;584;131023;-68
2021/09/08 03:53:23;;;;;;;;;8.75;7.00;;;;;26.76;40.48;101406.87;144155;593;132909;-68
2021/09/08 03:55:57;;;;;;;;;7.00;7.00;;;;;26.30;41.38;101406.25;144172;571;132021;-67
2021/09/08 03:58:31;;;;;;;;;6.50;6.25;;;;;26.34;41.14;101409.50;144165;593;131909;-67
2021/09/08 04:01:04;;;;;;;;;7.00;6.00;;;;;26.14;41.28;101406.66;144173;621;132008;-68
2021/09/08 04:03:38;;;;;;;;;6.00;6.00;;;;;26.22;41.31;101405.16;144146;622;132012;-69
2021/09/08 04:06:12;;;;;;;;;7.50;5.75;;;;;26.28;41.50;101413.56;144152;570;132008;-68
2021/09/08 04:08:46;;;;;;;;;6.50;5.50;;;;;26.35;41.31;101416.59;144150;607;132010;-68
2021/09/08 04:11:20;;;;;;;;;6.75;5.00;;;;;26.41;41.09;101412.53;144176;575;131021;-68
2021/09/08 04:13:54;;;;;;;;;6.75;6.25;;;;;26.42;41.36;101417.81;144159;631;131016;-68
2021/09/08 04:16:28;;;;;;;;;6.00;4.75;;;;;26.59;41.46;101415.53;144178;571;131020;-69
2021/09/08 04:19:01;;;;;;;;;6.25;6.00;;;;;26.34;41.43;101421.16;144150;622;132021;-69
2021/09/08 04:21:35;;;;;;;;;9.00;7.00;;;;;26.62;41.36;101423.34;144176;610;131020;-68
2021/09/08 04:24:09;;;;;;;;;7.25;7.00;;;;;26.68;41.11;101418.28;144166;703;132010;-68
2021/09/08 04:26:43;;;;;;;;;6.50;6.50;;;;;26.68;41.07;101420.09;144173;616;132008;-68
2021/09/08 04:29:17;;;;;;;;;5.50;5.50;;;;;26.57;41.21;101412.09;144157;572;132905;-68
2021/09/08 04:31:51;;;;;;;;;5.25;5.00;;;;;26.51;41.11;101419.72;144154;579;132008;-68
2021/09/08 04:34:25;;;;;;;;;7.50;6.50;;;;;26.40;41.37;101427.00;144149;576;132021;-66
2021/09/08 04:36:59;;;;;;;;;10.50;7.25;;;;;26.46;41.68;101426.47;144177;578;131020;-67
2021/09/08 04:39:32;;;;;;;;;5.75;5.75;;;;;26.33;42.05;101427.50;144156;581;131909;-69
2021/09/08 04:42:07;;;;;;;;;7.75;7.50;;;;;26.48;41.57;101430.75;144170;591;131023;-69
2021/09/08 04:44:46;;;;;;;;;10.00;8.00;;;;;26.47;41.41;101430.88;144154;612;131909;-68
2021/09/08 04:47:20;;;;;;;;;6.50;6.25;;;;;26.49;41.47;101439.66;144169;593;132008;-69
2021/09/08 04:49:53;;;;;;;;;9.25;7.00;;;;;26.60;41.43;101441.44;144166;595;131909;-70
2021/09/08 04:52:27;;;;;;;;;7.00;5.25;;;;;26.61;41.39;101435.09;144176;588;131020;-69
2021/09/08 04:55:01;;;;;;;;;9.25;7.50;;;;;26.68;41.22;101438.97;144146;569;132909;-69
2021/09/08 04:57:35;;;;;;;;;7.50;7.50;;;;;26.78;41.39;101441.78;144165;563;131010;-69
2021/09/08 05:00:10;;;;;;;;;6.00;6.00;;;;;26.67;41.62;101434.59;144147;612;132010;-69
2021/09/08 05:02:44;;;;;;;;;6.75;5.75;;;;;26.87;40.25;101445.50;144170;609;131020;-69
2021/09/08 05:05:18;;;;;;;;;5.25;5.25;;;;;26.97;39.51;101451.81;144152;590;131909;-68
2021/09/08 05:07:51;;;;;;;;;8.00;7.25;;;;;27.07;39.05;101441.94;144171;596;132008;-69
2021/09/08 05:10:25;;;;;;;;;5.00;5.00;;;;;27.15;38.67;101439.44;144159;628;132910;-69
2021/09/08 05:12:59;;;;;;;;;8.00;8.00;;;;;27.21;38.08;101447.97;144177;604;132008;-68
2021/09/08 05:15:33;;;;;;;;;6.00;6.00;;;;;27.22;38.06;101433.53;144166;784;132020;-69
2021/09/08 05:18:07;;;;;;;;;6.75;6.75;;;;;27.28;38.31;101435.66;144170;655;132010;-69
2021/09/08 05:20:41;;;;;;;;;5.25;5.25;;;;;27.34;38.60;101435.16;144159;602;132909;-68
2021/09/08 05:23:15;;;;;;;;;6.75;6.00;;;;;27.45;38.49;101440.47;144161;571;131020;-71
2021/09/08 05:25:49;;;;;;;;;6.75;6.00;;;;;27.46;38.98;101436.78;144154;602;132012;-69
2021/09/08 05:28:23;;;;;;;;;8.25;6.25;;;;;27.53;38.97;101442.50;144167;579;132010;-68
2021/09/08 05:30:57;;;;;;;;;7.25;5.50;;;;;27.61;38.75;101439.09;144158;567;132020;-71
2021/09/08 05:33:32;;;;;;;;;7.00;6.00;;;;;27.59;38.68;101444.63;144175;591;132008;-70
2021/09/08 05:36:06;;;;;;;;;9.75;8.25;;;;;27.65;38.66;101452.19;144157;564;131909;-68
2021/09/08 05:38:40;;;;;;;;;8.00;7.50;;;;;27.67;38.51;101444.78;144170;616;131022;-67
2021/09/08 05:41:14;;;;;;;;;4.75;4.75;;;;;27.66;39.04;101448.47;144163;597;132909;-68
2021/09/08 05:43:48;;;;;;;;;7.75;5.25;;;;;27.69;39.13;101442.81;144167;570;132008;-69
2021/09/08 05:46:22;;;;;;;;;9.50;8.25;;;;;27.74;39.31;101449.66;144154;599;131909;-66
2021/09/08 05:48:56;;;;;;;;;7.75;6.00;;;;;27.82;39.08;101447.97;144159;582;131020;-69
2021/09/08 05:51:29;;;;;;;;;8.00;5.50;;;;;27.81;38.58;101446.25;144156;576;132909;-68
2021/09/08 05:54:04;;;;;;;;;6.00;6.00;;;;;27.86;39.02;101453.94;144178;619;132009;-68
2021/09/08 05:56:38;;;;;;;;;4.75;4.75;;;;;27.91;39.04;101440.03;144150;571;132010;-69
2021/09/08 05:59:12;;;;;;;;;5.75;5.25;;;;;27.84;39.50;101445.12;144169;614;131021;-68
2021/09/08 06:01:46;;;;;;;;;7.50;6.50;;;;;27.98;39.23;101441.16;144151;664;131910;-68
2021/09/08 06:04:20;;;;;;;;;8.00;8.00;;;;;28.07;38.99;101444.91;144170;573;131020;-68
2021/09/08 06:06:55;;;;;;;;;4.75;4.75;;;;;27.93;39.57;101438.06;144163;609;131909;-67
2021/09/08 06:09:30;;;;;;;;;4.75;4.75;;;;;28.22;38.61;101440.81;144177;610;131023;-68
2021/09/08 06:12:03;;;;;;;;;6.25;6.25;;;;;28.27;37.76;101446.63;144154;573;132010;-68
2021/09/08 06:14:38;;;;;;;;;6.00;6.00;;;;;28.29;37.43;101452.75;144158;595;131021;-67
2021/09/08 06:17:11;;;;;;;;;6.50;5.25;;;;;28.28;37.58;101445.66;144151;572;132019;-65
2021/09/08 06:19:45;;;;;;;;;11.75;8.00;;;;;28.33;37.61;101445.22;144166;597;132010;-66
2021/09/08 06:22:19;;;;;;;;;6.00;6.00;;;;;28.41;37.02;101444.53;144154;573;132010;-66
2021/09/08 06:24:53;;;;;;;;;8.75;7.75;;;;;28.43;36.28;101445.22;144175;564;132010;-66
2021/09/08 06:27:27;;;;;;;;;6.00;6.00;;;;;28.30;36.51;101448.22;144137;598;146010;-66
2021/09/08 06:30:01;;;;;;;;;9.50;8.75;;;;;28.43;36.28;101446.09;144171;588;132009;-67
2021/09/08 06:32:35;;;;;;;;;5.25;4.75;;;;;28.27;36.83;101443.06;144171;588;131909;-66
2021/09/08 06:35:19;;;;;;;;;7.25;7.25;;;;;28.30;36.56;101442.81;144170;569;132008;-66
2021/09/08 06:37:53;;;;;;;;;6.50;6.50;;;;;28.20;36.63;101451.75;144157;564;131023;-68
2021/09/08 06:40:27;;;;;;;;;6.00;5.00;;;;;28.04;35.68;101456.84;144151;601;132010;-67
2021/09/08 06:43:01;;;;;;;;;5.00;5.00;;;;;28.17;35.63;101462.84;144150;594;132010;-68
2021/09/08 06:45:35;;;;;;;;;6.25;5.25;;;;;28.22;35.78;101456.16;144177;594;131021;-68
2021/09/08 06:48:09;;;;;;;;;5.50;5.50;;;;;28.30;35.23;101451.75;144154;639;132018;-67
2021/09/08 06:50:43;;;;;;;;;8.00;8.00;;;;;28.44;34.93;101461.28;144174;581;131020;-68
2021/09/08 06:53:17;;;;;;;;;6.75;6.75;;;;;28.29;35.30;101455.44;144148;579;132011;-67
2021/09/08 06:55:51;;;;;;;;;4.75;4.75;;;;;28.44;35.26;101460.44;144178;749;131010;-67
2021/09/08 06:58:25;;;;;;;;;5.75;5.00;;;;;28.42;35.66;101465.09;144167;578;132911;-68
2021/09/08 07:00:58;;;;;;;;;5.50;4.50;;;;;27.87;36.28;101470.00;144175;593;132010;-67
2021/09/08 07:03:33;;;;;;;;;5.25;4.75;;;;;27.23;37.93;101470.25;144156;564;131911;-68
2021/09/08 07:06:07;;;;;;;;;6.50;6.50;;;;;26.36;38.33;101482.94;144154;563;131020;-67
2021/09/08 07:08:40;;;;;;;;;6.25;6.25;;;;;27.47;37.28;101467.28;144143;565;132912;-68
2021/09/08 07:11:14;;;;;;;;;4.00;3.00;;;;;26.34;37.73;101466.03;144165;574;132010;-68
2021/09/08 07:13:48;;;;;;;;;6.50;6.50;;;;;25.54;39.57;101483.28;144159;675;131016;-68
2021/09/08 07:16:22;;;;;;;;;6.00;6.00;;;;;25.92;39.38;101488.25;144177;744;131021;-67
2021/09/08 07:18:56;;;;;;;;;6.75;6.00;;;;;25.23;40.63;101489.19;144149;614;132012;-68
2021/09/08 07:21:30;;;;;;;;;5.50;5.50;;;;;25.74;40.00;101496.00;144178;576;131010;-67
2021/09/08 07:24:04;;;;;;;;;5.75;5.75;;;;;25.88;39.32;101507.47;144168;569;132912;-66
2021/09/08 07:26:38;;;;;;;;;6.00;6.00;;;;;25.18;40.94;101504.84;144169;665;132008;-66
2021/09/08 07:29:12;;;;;;;;;6.75;6.75;;;;;25.07;40.84;101500.28;144157;606;132912;-68
2021/09/08 07:31:46;;;;;;;;;8.50;4.75;;;;;26.18;38.60;101505.00;144156;679;131025;-67
2021/09/08 07:34:20;;;;;;;;;7.00;6.50;;;;;26.16;38.76;101511.47;144161;656;132911;-67
2021/09/08 07:36:54;;;;;;;;;6.00;5.50;;;;;25.48;39.46;101501.59;144176;651;131045;-66
2021/09/08 07:39:29;;;;;;;;;6.75;6.25;;;;;25.70;39.21;101499.03;144152;593;131912;-67
2021/09/08 07:42:03;;;;;;;;;5.00;4.25;;;;;26.67;37.51;101499.22;144171;563;131022;-66
2021/09/08 07:44:37;;;;;;;;;8.00;6.00;;;;;27.33;36.32;101495.44;144152;577;132911;-66
2021/09/08 07:47:11;;;;;;;;;4.00;4.00;;;;;25.60;38.77;101499.78;144173;650;132010;-67
2021/09/08 07:49:45;;;;;;;;;6.00;5.00;;;;;25.30;39.26;101506.56;144164;603;131911;-67
2021/09/08 07:52:19;;;;;;;;;8.00;7.00;;;;;25.11;40.26;101504.44;144176;634;131010;-67
2021/09/08 07:54:53;;;;;;;;;6.25;6.25;;;;;25.67;39.40;101510.88;144153;593;132010;-67
2021/09/08 07:57:27;;;;;;;;;7.50;6.00;;;;;25.37;39.55;101512.34;144152;629;132010;-67
2021/09/08 08:00:01;;;;;;;;;10.00;6.75;;;;;26.99;36.95;101519.91;144140;643;135008;-67
2021/09/08 08:02:35;;;;;;;;;6.50;5.50;;;;;27.46;35.89;101512.28;144174;588;131020;-67
2021/09/08 08:05:09;;;;;;;;;4.50;4.50;;;;;27.52;35.67;101517.12;144154;605;131020;-66
2021/09/08 08:07:43;;;;;;;;;6.00;6.00;;;;;27.46;36.08;101512.28;144164;610;132010;-67
2021/09/08 08:10:19;;;;;;;;;9.75;9.00;;;;;27.75;35.54;101516.06;144156;567;132911;-67
2021/09/08 08:12:53;;;;;;;;;5.50;5.50;;;;;27.33;36.02;101525.94;144180;582;131011;-67
2021/09/08 08:15:28;;;;;;;;;6.25;6.25;;;;;27.29;35.04;101531.72;144166;569;132019;-66
2021/09/08 08:18:02;;;;;;;;;6.25;5.75;;;;;27.87;33.66;101526.66;144170;606;131022;-67
2021/09/08 08:20:36;;;;;;;;;6.00;6.00;;;;;27.70;33.57;101529.97;144150;638;132017;-67
2021/09/08 08:23:10;;;;;;;;;6.50;5.50;;;;;27.62;33.59;101527.94;144163;566;131021;-67
2021/09/08 08:25:44;;;;;;;;;9.75;7.00;;;;;27.65;34.61;101532.22;144148;619;132911;-67
2021/09/08 08:28:18;;;;;;;;;8.00;7.00;;;;;27.35;35.07;101537.44;144174;564;131045;-67
2021/09/08 08:30:52;;;;;;;;;9.00;9.00;;;;;26.93;36.85;101541.97;144141;613;146016;-67
2021/09/08 08:33:26;;;;;;;;;9.00;9.00;;;;;26.75;39.16;101555.16;144174;580;132008;-66
2021/09/08 08:36:00;;;;;;;;;7.00;7.00;;;;;26.76;40.69;101564.94;144145;606;132010;-67
2021/09/08 08:38:34;;;;;;;;;10.50;8.50;;;;;26.77;41.39;101559.41;144168;569;132010;-67
2021/09/08 08:41:08;;;;;;;;;12.75;11.75;;;;;26.78;41.75;101561.16;144166;625;132050;-67
2021/09/08 08:43:43;;;;;;;;;13.50;13.50;;;;;26.59;42.32;101559.09;144167;671;132010;-67
2021/09/08 08:46:17;;;;;;;;;12.50;12.50;;;;;26.75;42.28;101566.78;144152;589;132911;-66
2021/09/08 08:48:51;;;;;;;;;9.00;9.00;;;;;26.61;42.39;101553.56;144157;607;131020;-66
2021/09/08 08:51:25;;;;;;;;;8.00;7.50;;;;;26.90;41.86;101553.00;144148;644;132911;-67
2021/09/08 08:53:59;;;;;;;;;5.00;5.00;;;;;27.03;41.29;101545.59;144168;582;132008;-67
2021/09/08 08:56:34;;;;;;;;;5.75;5.00;;;;;27.13;41.27;101553.75;144156;563;132020;-67
2021/09/08 08:59:08;;;;;;;;;5.25;4.75;;;;;27.14;41.09;101544.69;144176;590;131010;-67
2021/09/08 09:01:41;;;;;;;;;6.50;5.75;;;;;27.10;40.99;101549.47;144149;622;132018;-67
2021/09/08 09:04:17;;;;;;;;;6.25;6.25;;;;;27.14;41.02;101547.38;144171;602;131020;-67
2021/09/08 09:06:53;;;;;;;;;7.50;7.50;;;;;27.19;41.41;101548.69;144164;597;131912;-66
2021/09/08 09:09:28;;;;;;;;;9.25;8.75;;;;;27.23;41.88;101549.28;144172;581;131020;-67
2021/09/08 09:12:03;;;;;;;;;6.25;6.25;;;;;27.29;42.57;101548.75;144154;607;131911;-67
2021/09/08 09:14:37;;;;;;;;;7.50;7.50;;;;;27.32;42.95;101548.47;144159;576;131021;-67
2021/09/08 09:17:18;;;;;;;;;7.00;7.00;;;;;27.24;42.22;101556.38;144152;593;132911;-67
2021/09/08 09:20:06;;;;;;;;;9.50;9.50;;;;;27.13;43.21;101551.06;144173;622;131020;-66
2021/09/08 09:22:45;;;;;;;;;8.00;8.00;;;;;26.94;43.70;101546.38;144146;583;132021;-67
2021/09/08 09:25:22;;;;;;;;;12.00;8.75;;;;;26.85;44.02;101551.56;144175;634;131028;-66
2021/09/08 09:28:03;;;;;;;;;13.75;9.75;;;;;26.76;44.50;101560.41;144150;609;132909;-67
2021/09/08 09:30:41;;;;;;;;;8.25;6.25;;;;;26.62;44.99;101558.84;144165;646;132010;-67
2021/09/08 09:33:15;;;;;;;;;9.00;7.50;;;;;26.55;45.34;101562.19;144163;689;132010;-68
2021/09/08 09:35:49;;;;;;;;;6.00;6.00;;;;;26.49;44.88;101559.00;144169;604;132008;-67
2021/09/08 09:38:24;;;;;;;;;8.50;8.25;;;;;26.48;45.32;101562.66;144152;622;132909;-68
2021/09/08 09:40:58;;;;;;;;;9.25;9.25;;;;;26.22;47.85;101563.94;144163;629;131023;-68
2021/09/08 09:43:34;;;;;;;;;8.00;8.00;;;;;26.16;47.57;101554.53;144152;609;131909;-67
2021/09/08 09:46:11;;;;;;;;;8.00;8.00;;;;;25.99;48.02;101554.03;144165;602;132010;-67
2021/09/08 09:48:45;;;;;;;;;9.00;7.75;;;;;26.00;47.08;101552.22;144158;598;131909;-67
2021/09/08 09:51:19;;;;;;;;;8.75;8.75;;;;;25.80;47.57;101565.41;144165;600;132010;-68
2021/09/08 09:53:53;;;;;;;;;15.50;10.25;;;;;25.84;48.26;101564.19;144150;579;131909;-67
2021/09/08 09:56:27;;;;;;;;;12.00;10.75;;;;;25.88;48.60;101561.28;144179;592;131025;-68
2021/09/08 09:59:02;;;;;;;;;12.25;12.25;;;;;25.92;48.42;101560.03;144163;572;132910;-67
2021/09/08 10:01:36;;;;;;;;;10.00;10.00;;;;;25.87;48.54;101554.16;144175;610;132010;-67
2021/09/08 10:04:10;;;;;;;;;14.25;11.75;;;;;25.61;49.27;101549.03;144151;610;132011;-67
2021/09/08 10:06:46;;;;;;;;;12.25;10.75;;;;;25.49;49.33;101558.91;144160;588;131020;-67
2021/09/08 10:09:24;;;;;;;;;13.00;12.50;;;;;25.84;48.59;101558.81;144154;597;131020;-68
2021/09/08 10:12:05;;;;;;;;;10.25;10.25;;;;;25.78;49.53;101553.94;144175;631;131029;-68
2021/09/08 10:14:39;;;;;;;;;12.25;12.25;;;;;25.91;48.96;101547.56;144149;594;131894;-67
2021/09/08 10:17:13;;;;;;;;;12.50;12.00;;;;;25.88;49.08;101545.13;144165;620;132010;-67
2021/09/08 10:19:49;;;;;;;;;14.00;12.00;;;;;25.88;49.25;101554.03;144153;593;131909;-67
2021/09/08 10:22:27;;;;;;;;;14.25;11.00;;;;;25.83;49.40;101550.84;144176;557;131020;-67
2021/09/08 10:25:12;;;;;;;;;15.00;14.25;;;;;25.80;49.65;101565.41;144163;624;131909;-67
2021/09/08 10:27:46;;;;;;;;;15.50;11.25;;;;;25.78;49.36;101556.63;144172;658;132008;-67
2021/09/08 10:30:20;;;;;;;;;10.25;7.00;;;;;25.74;49.64;101555.16;144147;563;132012;-67
2021/09/08 10:33:03;;;;;;;;;12.25;12.25;;;;;25.80;49.80;101559.19;144155;573;131020;-67
2021/09/08 10:35:43;;;;;;;;;13.25;12.00;;;;;25.68;49.54;101543.06;144153;601;131909;-67
2021/09/08 10:38:23;;;;;;;;;10.00;10.00;;;;;25.50;49.81;101553.41;144170;587;132010;-67
2021/09/08 10:40:57;;;;;;;;;11.50;10.50;;;;;25.80;49.70;101554.66;144153;622;132909;-67
2021/09/08 10:43:36;;;;;;;;;14.75;13.50;;;;;25.89;49.25;101562.97;144172;571;131023;-67
2021/09/08 10:46:10;;;;;;;;;12.25;10.25;;;;;25.46;49.51;101545.69;144155;631;131909;-67
2021/09/08 10:48:49;;;;;;;;;13.00;12.00;;;;;25.09;51.00;101545.84;144176;639;131029;-67
2021/09/08 10:51:57;;;;;;;;;14.75;12.75;;;;;24.96;51.14;101543.22;144189;602;130016;-67
2021/09/08 10:54:31;;;;;;;;;11.75;11.75;;;;;25.60;49.74;101550.00;144193;581;131008;-68
2021/09/08 10:57:05;;;;;;;;;12.50;11.50;;;;;25.43;49.87;101559.37;144171;587;132909;-68
2021/09/08 11:00:05;;;;;;;;;12.00;11.25;;;;;25.62;49.17;101546.22;144180;576;131008;-68
2021/09/08 11:02:46;;;;;;;;;14.50;13.75;;;;;25.83;49.24;101565.19;144174;595;131911;-67
2021/09/08 11:05:20;;;;;;;;;15.50;11.75;;;;;25.85;49.02;101562.37;144190;683;131008;-66
2021/09/08 11:07:55;;;;;;;;;12.00;12.00;;;;;25.88;49.15;101566.66;144176;577;131012;-67
2021/09/08 11:10:36;;;;;;;;;11.50;11.50;;;;;25.91;49.22;101555.63;144197;583;130020;-68
2021/09/08 11:13:10;;;;;;;;;16.25;14.75;;;;;25.85;49.42;101555.13;144177;682;130909;-67
2021/09/08 11:15:44;;;;;;;;;11.75;10.50;;;;;25.38;50.66;101553.50;144191;578;131006;-67
2021/09/08 11:18:18;;;;;;;;;12.25;12.25;;;;;25.68;50.03;101553.81;144184;630;131018;-67
2021/09/08 11:21:08;;;;;;;;;11.25;11.25;;;;;25.23;51.81;101550.16;144194;605;131005;-67
2021/09/08 11:23:42;;;;;;;;;14.25;14.25;;;;;25.15;51.43;101554.28;144179;572;131010;-67
2021/09/08 11:26:16;;;;;;;;;14.75;14.75;;;;;25.34;51.08;101542.13;144184;677;130010;-67
2021/09/08 11:28:50;;;;;;;;;4.75;4.75;;;;;24.54;54.00;101549.00;144179;585;130020;-67
2021/09/08 11:31:24;;;;;;;;;20.50;20.50;;;;;25.14;52.45;101547.19;144196;591;130020;-67
2021/09/08 11:33:58;;;;;;;;;16.00;16.00;;;;;24.81;53.10;101547.94;144178;627;130909;-67
2021/09/08 11:36:33;;;;;;;;;16.75;15.50;;;;;25.28;51.89;101554.19;144195;620;130020;-67
2021/09/08 11:39:17;;;;;;;;;14.50;13.00;;;;;25.44;51.80;101547.66;144177;627;131010;-67
2021/09/08 11:42:17;;;;;;;;;15.25;15.25;;;;;25.44;51.92;101531.53;144193;564;130023;-68
2021/09/08 11:45:00;;;;;;;;;17.00;17.00;;;;;25.54;51.85;101537.91;144179;572;131911;-67
2021/09/08 11:47:34;;;;;;;;;14.50;14.50;;;;;24.79;54.07;101539.13;144140;572;164021;-67
2021/09/08 11:50:08;;;;;;;;;17.75;15.75;;;;;25.02;53.23;101531.19;144161;658;132012;-68